sensor_id;sensor_type;location;lat;lon;timestamp;temperature;humidity
71175;DHT22;58876;51.994;4.472;2022-08-19T00:01:35;20.35;72.18
71175;DHT22;58876;51.994;4.472;2022-08-19T00:04:03;20.35;73.45
71175;DHT22;58876;51.994;4.472;2022-08-19T00:06:29;20.32;72.93
71175;DHT22;58876;51.994;4.472;2022-08-19T00:08:56;20.29;72.60
71175;DHT22;58876;51.994;4.472;2022-08-19T00:11:23;20.25;71.44
71175;DHT22;58876;51.994;4.472;2022-08-19T00:13:49;20.22;73.68
71175;DHT22;58876;51.994;4.472;2022-08-19T00:16:19;20.18;73.55
71175;DHT22;58876;51.994;4.472;2022-08-19T00:18:46;20.20;73.82
71175;DHT22;58876;51.994;4.472;2022-08-19T00:21:12;20.18;73.21
71175;DHT22;58876;51.994;4.472;2022-08-19T00:23:38;20.20;74.29
71175;DHT22;58876;51.994;4.472;2022-08-19T00:26:04;20.21;74.33
71175;DHT22;58876;51.994;4.472;2022-08-19T00:28:30;20.17;73.99
71175;DHT22;58876;51.994;4.472;2022-08-19T00:30:56;20.24;75.21
71175;DHT22;58876;51.994;4.472;2022-08-19T00:33:21;20.25;75.66
71175;DHT22;58876;51.994;4.472;2022-08-19T00:35:47;20.24;75.21
71175;DHT22;58876;51.994;4.472;2022-08-19T00:38:12;20.16;74.63
71175;DHT22;58876;51.994;4.472;2022-08-19T00:40:38;20.14;74.62
71175;DHT22;58876;51.994;4.472;2022-08-19T00:43:11;20.13;74.93
71175;DHT22;58876;51.994;4.472;2022-08-19T00:45:40;20.10;74.60
71175;DHT22;58876;51.994;4.472;2022-08-19T00:48:09;20.11;74.39
71175;DHT22;58876;51.994;4.472;2022-08-19T00:50:35;20.08;74.06
71175;DHT22;58876;51.994;4.472;2022-08-19T00:53:02;20.06;74.73
71175;DHT22;58876;51.994;4.472;2022-08-19T00:55:28;20.01;74.48
71175;DHT22;58876;51.994;4.472;2022-08-19T00:58:06;19.94;74.26
71175;DHT22;58876;51.994;4.472;2022-08-19T01:00:33;19.97;75.92
71175;DHT22;58876;51.994;4.472;2022-08-19T01:03:07;19.88;74.90
71175;DHT22;58876;51.994;4.472;2022-08-19T01:05:33;19.87;75.43
71175;DHT22;58876;51.994;4.472;2022-08-19T01:08:02;19.88;75.84
71175;DHT22;58876;51.994;4.472;2022-08-19T01:10:32;19.87;75.96
71175;DHT22;58876;51.994;4.472;2022-08-19T01:12:59;19.88;75.64
71175;DHT22;58876;51.994;4.472;2022-08-19T01:15:31;19.84;75.12
71175;DHT22;58876;51.994;4.472;2022-08-19T01:18:01;19.77;74.67
71175;DHT22;58876;51.994;4.472;2022-08-19T01:20:29;19.80;75.44
71175;DHT22;58876;51.994;4.472;2022-08-19T01:22:58;19.81;74.92
71175;DHT22;58876;51.994;4.472;2022-08-19T01:25:48;19.77;75.27
71175;DHT22;58876;51.994;4.472;2022-08-19T01:28:26;19.73;75.10
71175;DHT22;58876;51.994;4.472;2022-08-19T01:30:54;19.67;75.23
71175;DHT22;58876;51.994;4.472;2022-08-19T01:33:21;19.69;76.15
71175;DHT22;58876;51.994;4.472;2022-08-19T01:35:46;19.70;76.45
71175;DHT22;58876;51.994;4.472;2022-08-19T01:38:22;19.74;77.26
71175;DHT22;58876;51.994;4.472;2022-08-19T01:40:48;19.80;76.74
71175;DHT22;58876;51.994;4.472;2022-08-19T01:43:14;19.81;76.16
71175;DHT22;58876;51.994;4.472;2022-08-19T01:45:40;19.83;76.13
71175;DHT22;58876;51.994;4.472;2022-08-19T01:48:07;19.79;76.04
71175;DHT22;58876;51.994;4.472;2022-08-19T01:50:33;19.71;75.39
71175;DHT22;58876;51.994;4.472;2022-08-19T01:53:01;19.73;76.07
71175;DHT22;58876;51.994;4.472;2022-08-19T01:55:26;19.86;76.97
71175;DHT22;58876;51.994;4.472;2022-08-19T01:57:57;19.79;77.83
71175;DHT22;58876;51.994;4.472;2022-08-19T02:00:25;19.74;78.63
71175;DHT22;58876;51.994;4.472;2022-08-19T02:02:51;19.70;78.28
71175;DHT22;58876;51.994;4.472;2022-08-19T02:05:16;19.70;78.33
71175;DHT22;58876;51.994;4.472;2022-08-19T02:07:44;19.76;79.01
71175;DHT22;58876;51.994;4.472;2022-08-19T02:10:14;19.83;79.31
71175;DHT22;58876;51.994;4.472;2022-08-19T02:12:42;19.84;79.55
71175;DHT22;58876;51.994;4.472;2022-08-19T02:15:09;19.84;79.58
71175;DHT22;58876;51.994;4.472;2022-08-19T02:17:34;19.87;79.71
71175;DHT22;58876;51.994;4.472;2022-08-19T02:20:00;19.88;80.09
71175;DHT22;58876;51.994;4.472;2022-08-19T02:22:26;19.93;79.98
71175;DHT22;58876;51.994;4.472;2022-08-19T02:24:53;19.97;79.85
71175;DHT22;58876;51.994;4.472;2022-08-19T02:27:18;19.97;80.08
71175;DHT22;58876;51.994;4.472;2022-08-19T02:29:46;19.90;80.33
71175;DHT22;58876;51.994;4.472;2022-08-19T02:32:16;19.97;80.17
71175;DHT22;58876;51.994;4.472;2022-08-19T02:34:41;19.98;80.47
71175;DHT22;58876;51.994;4.472;2022-08-19T02:37:07;20.01;80.36
71175;DHT22;58876;51.994;4.472;2022-08-19T02:39:52;20.01;80.31
71175;DHT22;58876;51.994;4.472;2022-08-19T02:42:18;20.06;80.02
71175;DHT22;58876;51.994;4.472;2022-08-19T02:44:44;20.06;80.14
71175;DHT22;58876;51.994;4.472;2022-08-19T02:47:10;20.00;80.23
71175;DHT22;58876;51.994;4.472;2022-08-19T02:49:36;19.93;80.51
71175;DHT22;58876;51.994;4.472;2022-08-19T02:52:01;19.94;80.61
71175;DHT22;58876;51.994;4.472;2022-08-19T02:54:27;19.93;80.23
71175;DHT22;58876;51.994;4.472;2022-08-19T02:56:53;19.96;80.32
71175;DHT22;58876;51.994;4.472;2022-08-19T02:59:18;19.96;80.43
71175;DHT22;58876;51.994;4.472;2022-08-19T03:01:45;19.97;80.30
71175;DHT22;58876;51.994;4.472;2022-08-19T03:04:14;19.96;80.38
71175;DHT22;58876;51.994;4.472;2022-08-19T03:06:42;19.96;80.47
71175;DHT22;58876;51.994;4.472;2022-08-19T03:09:09;19.91;80.16
71175;DHT22;58876;51.994;4.472;2022-08-19T03:11:35;19.93;80.37
71175;DHT22;58876;51.994;4.472;2022-08-19T03:14:02;19.94;80.22
71175;DHT22;58876;51.994;4.472;2022-08-19T03:16:30;19.90;80.15
71175;DHT22;58876;51.994;4.472;2022-08-19T03:18:57;19.90;79.94
71175;DHT22;58876;51.994;4.472;2022-08-19T03:21:27;19.87;80.04
71175;DHT22;58876;51.994;4.472;2022-08-19T03:23:59;19.86;79.90
71175;DHT22;58876;51.994;4.472;2022-08-19T03:26:25;19.79;79.85
71175;DHT22;58876;51.994;4.472;2022-08-19T03:28:51;19.79;79.84
71175;DHT22;58876;51.994;4.472;2022-08-19T03:31:22;19.73;80.56
71175;DHT22;58876;51.994;4.472;2022-08-19T03:33:50;19.71;80.69
71175;DHT22;58876;51.994;4.472;2022-08-19T03:36:21;19.73;80.55
71175;DHT22;58876;51.994;4.472;2022-08-19T03:38:51;19.69;80.90
71175;DHT22;58876;51.994;4.472;2022-08-19T03:41:20;19.66;80.68
71175;DHT22;58876;51.994;4.472;2022-08-19T03:43:46;19.69;80.71
71175;DHT22;58876;51.994;4.472;2022-08-19T03:46:15;19.70;80.83
71175;DHT22;58876;51.994;4.472;2022-08-19T03:48:42;19.67;80.92
71175;DHT22;58876;51.994;4.472;2022-08-19T03:51:16;19.66;80.82
71175;DHT22;58876;51.994;4.472;2022-08-19T03:53:42;19.62;80.31
71175;DHT22;58876;51.994;4.472;2022-08-19T03:56:09;19.55;80.63
71175;DHT22;58876;51.994;4.472;2022-08-19T03:58:35;19.57;81.11
71175;DHT22;58876;51.994;4.472;2022-08-19T04:01:12;19.62;81.25
71175;DHT22;58876;51.994;4.472;2022-08-19T04:03:39;19.63;81.76
71175;DHT22;58876;51.994;4.472;2022-08-19T04:06:23;19.55;81.89
71175;DHT22;58876;51.994;4.472;2022-08-19T04:08:50;19.42;83.20
71175;DHT22;58876;51.994;4.472;2022-08-19T04:11:26;19.26;84.02
71175;DHT22;58876;51.994;4.472;2022-08-19T04:13:53;19.16;84.29
71175;DHT22;58876;51.994;4.472;2022-08-19T04:16:24;19.32;83.83
71175;DHT22;58876;51.994;4.472;2022-08-19T04:18:50;19.29;83.85
71175;DHT22;58876;51.994;4.472;2022-08-19T04:21:26;19.25;84.43
71175;DHT22;58876;51.994;4.472;2022-08-19T04:23:53;19.35;84.18
71175;DHT22;58876;51.994;4.472;2022-08-19T04:26:25;19.40;84.03
71175;DHT22;58876;51.994;4.472;2022-08-19T04:28:52;19.40;84.18
71175;DHT22;58876;51.994;4.472;2022-08-19T04:31:22;19.43;83.97
71175;DHT22;58876;51.994;4.472;2022-08-19T04:33:48;19.48;84.13
71175;DHT22;58876;51.994;4.472;2022-08-19T04:36:23;19.60;83.55
71175;DHT22;58876;51.994;4.472;2022-08-19T04:38:53;19.60;83.70
71175;DHT22;58876;51.994;4.472;2022-08-19T04:41:20;19.67;83.71
71175;DHT22;58876;51.994;4.472;2022-08-19T04:44:04;19.69;83.67
71175;DHT22;58876;51.994;4.472;2022-08-19T04:46:30;19.60;83.72
71175;DHT22;58876;51.994;4.472;2022-08-19T04:49:01;19.59;84.05
71175;DHT22;58876;51.994;4.472;2022-08-19T04:51:27;19.55;84.26
71175;DHT22;58876;51.994;4.472;2022-08-19T04:53:53;19.53;84.48
71175;DHT22;58876;51.994;4.472;2022-08-19T04:56:20;19.55;84.47
71175;DHT22;58876;51.994;4.472;2022-08-19T04:58:51;19.70;83.99
71175;DHT22;58876;51.994;4.472;2022-08-19T05:01:21;19.69;84.01
71175;DHT22;58876;51.994;4.472;2022-08-19T05:03:46;19.70;84.18
71175;DHT22;58876;51.994;4.472;2022-08-19T05:06:15;19.79;83.86
71175;DHT22;58876;51.994;4.472;2022-08-19T05:08:42;19.79;83.93
71175;DHT22;58876;51.994;4.472;2022-08-19T05:11:29;19.81;83.81
71175;DHT22;58876;51.994;4.472;2022-08-19T05:13:56;19.74;83.97
71175;DHT22;58876;51.994;4.472;2022-08-19T05:16:24;19.84;84.11
71175;DHT22;58876;51.994;4.472;2022-08-19T05:18:50;20.04;83.55
71175;DHT22;58876;51.994;4.472;2022-08-19T05:21:36;20.17;82.74
71175;DHT22;58876;51.994;4.472;2022-08-19T05:24:21;20.25;82.45
71175;DHT22;58876;51.994;4.472;2022-08-19T05:26:50;20.25;82.11
71175;DHT22;58876;51.994;4.472;2022-08-19T05:29:19;20.27;82.35
71175;DHT22;58876;51.994;4.472;2022-08-19T05:31:49;20.39;82.11
71175;DHT22;58876;51.994;4.472;2022-08-19T05:34:16;20.47;81.81
71175;DHT22;58876;51.994;4.472;2022-08-19T05:36:44;20.51;81.60
71175;DHT22;58876;51.994;4.472;2022-08-19T05:39:21;20.58;81.69
71175;DHT22;58876;51.994;4.472;2022-08-19T05:41:50;20.71;80.97
71175;DHT22;58876;51.994;4.472;2022-08-19T05:44:18;20.76;80.85
71175;DHT22;58876;51.994;4.472;2022-08-19T05:46:45;20.73;81.02
71175;DHT22;58876;51.994;4.472;2022-08-19T05:49:15;20.75;81.11
71175;DHT22;58876;51.994;4.472;2022-08-19T05:51:41;20.69;81.31
71175;DHT22;58876;51.994;4.472;2022-08-19T05:54:06;20.71;81.19
71175;DHT22;58876;51.994;4.472;2022-08-19T05:56:34;20.53;81.85
71175;DHT22;58876;51.994;4.472;2022-08-19T05:59:07;20.76;81.37
71175;DHT22;58876;51.994;4.472;2022-08-19T06:01:38;20.80;80.98
71175;DHT22;58876;51.994;4.472;2022-08-19T06:04:04;20.85;80.46
71175;DHT22;58876;51.994;4.472;2022-08-19T06:06:29;20.76;80.93
71175;DHT22;58876;51.994;4.472;2022-08-19T06:08:55;20.77;80.92
71175;DHT22;58876;51.994;4.472;2022-08-19T06:11:34;20.59;81.53
71175;DHT22;58876;51.994;4.472;2022-08-19T06:14:02;20.83;80.83
71175;DHT22;58876;51.994;4.472;2022-08-19T06:16:29;21.14;80.29
71175;DHT22;58876;51.994;4.472;2022-08-19T06:19:00;21.02;80.23
71175;DHT22;58876;51.994;4.472;2022-08-19T06:21:28;20.87;80.67
71175;DHT22;58876;51.994;4.472;2022-08-19T06:23:56;20.97;80.70
71175;DHT22;58876;51.994;4.472;2022-08-19T06:26:22;21.02;80.11
71175;DHT22;58876;51.994;4.472;2022-08-19T06:28:49;20.89;80.89
71175;DHT22;58876;51.994;4.472;2022-08-19T06:31:18;21.07;80.28
71175;DHT22;58876;51.994;4.472;2022-08-19T06:33:46;20.86;81.16
71175;DHT22;58876;51.994;4.472;2022-08-19T06:36:27;21.04;80.68
71175;DHT22;58876;51.994;4.472;2022-08-19T06:38:55;21.27;80.16
71175;DHT22;58876;51.994;4.472;2022-08-19T06:41:20;21.38;79.61
71175;DHT22;58876;51.994;4.472;2022-08-19T06:43:46;21.55;79.42
71175;DHT22;58876;51.994;4.472;2022-08-19T06:46:15;21.68;78.92
71175;DHT22;58876;51.994;4.472;2022-08-19T06:48:41;21.47;79.04
71175;DHT22;58876;51.994;4.472;2022-08-19T06:51:07;21.37;79.69
71175;DHT22;58876;51.994;4.472;2022-08-19T06:53:34;21.44;79.75
71175;DHT22;58876;51.994;4.472;2022-08-19T06:55:59;21.64;79.24
71175;DHT22;58876;51.994;4.472;2022-08-19T06:58:30;21.59;79.00
71175;DHT22;58876;51.994;4.472;2022-08-19T07:01:03;21.55;79.30
71175;DHT22;58876;51.994;4.472;2022-08-19T07:03:31;21.68;79.28
71175;DHT22;58876;51.994;4.472;2022-08-19T07:06:02;21.77;78.67
71175;DHT22;58876;51.994;4.472;2022-08-19T07:08:27;21.92;78.63
71175;DHT22;58876;51.994;4.472;2022-08-19T07:10:53;22.37;77.04
71175;DHT22;58876;51.994;4.472;2022-08-19T07:13:18;22.17;77.43
71175;DHT22;58876;51.994;4.472;2022-08-19T07:15:44;22.23;77.38
71175;DHT22;58876;51.994;4.472;2022-08-19T07:18:11;22.37;76.98
71175;DHT22;58876;51.994;4.472;2022-08-19T07:20:37;22.36;77.18
71175;DHT22;58876;51.994;4.472;2022-08-19T07:23:05;22.32;76.91
71175;DHT22;58876;51.994;4.472;2022-08-19T07:25:32;22.36;77.09
71175;DHT22;58876;51.994;4.472;2022-08-19T07:27:57;22.57;77.01
71175;DHT22;58876;51.994;4.472;2022-08-19T07:30:23;22.86;76.01
71175;DHT22;58876;51.994;4.472;2022-08-19T07:32:49;22.92;74.74
71175;DHT22;58876;51.994;4.472;2022-08-19T07:35:16;22.49;76.27
71175;DHT22;58876;51.994;4.472;2022-08-19T07:37:45;22.46;76.50
71175;DHT22;58876;51.994;4.472;2022-08-19T07:40:11;22.36;76.56
71175;DHT22;58876;51.994;4.472;2022-08-19T07:42:37;22.10;77.76
71175;DHT22;58876;51.994;4.472;2022-08-19T07:45:05;22.29;77.13
71175;DHT22;58876;51.994;4.472;2022-08-19T07:47:30;22.08;77.28
71175;DHT22;58876;51.994;4.472;2022-08-19T07:49:56;21.89;78.59
71175;DHT22;58876;51.994;4.472;2022-08-19T07:52:21;22.05;78.20
71175;DHT22;58876;51.994;4.472;2022-08-19T07:54:47;22.05;78.05
71175;DHT22;58876;51.994;4.472;2022-08-19T07:57:13;22.06;78.15
71175;DHT22;58876;51.994;4.472;2022-08-19T07:59:38;22.46;76.78
71175;DHT22;58876;51.994;4.472;2022-08-19T08:02:05;22.28;77.66
71175;DHT22;58876;51.994;4.472;2022-08-19T08:04:31;22.43;77.02
71175;DHT22;58876;51.994;4.472;2022-08-19T08:07:16;22.63;76.34
71175;DHT22;58876;51.994;4.472;2022-08-19T08:10:01;22.63;76.27
71175;DHT22;58876;51.994;4.472;2022-08-19T08:12:30;22.20;77.26
71175;DHT22;58876;51.994;4.472;2022-08-19T08:14:59;22.25;77.54
71175;DHT22;58876;51.994;4.472;2022-08-19T08:17:28;22.60;76.87
71175;DHT22;58876;51.994;4.472;2022-08-19T08:19:54;22.98;75.44
71175;DHT22;58876;51.994;4.472;2022-08-19T08:22:22;23.12;74.76
71175;DHT22;58876;51.994;4.472;2022-08-19T08:25:16;23.26;74.34
71175;DHT22;58876;51.994;4.472;2022-08-19T08:27:44;23.16;74.58
71175;DHT22;58876;51.994;4.472;2022-08-19T08:30:17;23.26;74.18
71175;DHT22;58876;51.994;4.472;2022-08-19T08:32:43;23.46;73.68
71175;DHT22;58876;51.994;4.472;2022-08-19T08:35:13;23.37;73.93
71175;DHT22;58876;51.994;4.472;2022-08-19T08:37:39;23.45;73.08
71175;DHT22;58876;51.994;4.472;2022-08-19T08:40:30;23.48;73.47
71175;DHT22;58876;51.994;4.472;2022-08-19T08:43:18;24.55;70.53
71175;DHT22;58876;51.994;4.472;2022-08-19T08:46:01;25.56;66.79
71175;DHT22;58876;51.994;4.472;2022-08-19T08:48:44;26.04;64.99
71175;DHT22;58876;51.994;4.472;2022-08-19T08:51:21;25.60;65.66
71175;DHT22;58876;51.994;4.472;2022-08-19T08:53:51;25.66;65.96
71175;DHT22;58876;51.994;4.472;2022-08-19T08:56:17;26.53;63.44
71175;DHT22;58876;51.994;4.472;2022-08-19T08:58:48;26.16;63.59
71175;DHT22;58876;51.994;4.472;2022-08-19T09:01:16;26.37;62.35
71175;DHT22;58876;51.994;4.472;2022-08-19T09:03:43;26.47;62.77
71175;DHT22;58876;51.994;4.472;2022-08-19T09:06:20;25.73;64.39
71175;DHT22;58876;51.994;4.472;2022-08-19T09:09:17;26.08;62.85
71175;DHT22;58876;51.994;4.472;2022-08-19T09:11:50;25.68;64.88
71175;DHT22;58876;51.994;4.472;2022-08-19T09:14:36;26.19;63.55
71175;DHT22;58876;51.994;4.472;2022-08-19T09:17:03;26.94;62.49
71175;DHT22;58876;51.994;4.472;2022-08-19T09:19:35;25.68;64.40
71175;DHT22;58876;51.994;4.472;2022-08-19T09:22:00;24.67;67.04
71175;DHT22;58876;51.994;4.472;2022-08-19T09:24:26;24.18;68.45
71175;DHT22;58876;51.994;4.472;2022-08-19T09:26:51;23.86;68.91
71175;DHT22;58876;51.994;4.472;2022-08-19T09:29:17;23.87;69.47
71175;DHT22;58876;51.994;4.472;2022-08-19T09:31:42;23.80;68.76
71175;DHT22;58876;51.994;4.472;2022-08-19T09:34:08;23.93;69.17
71175;DHT22;58876;51.994;4.472;2022-08-19T09:36:33;24.06;69.61
71175;DHT22;58876;51.994;4.472;2022-08-19T09:39:03;23.66;69.43
71175;DHT22;58876;51.994;4.472;2022-08-19T09:41:29;23.58;70.66
71175;DHT22;58876;51.994;4.472;2022-08-19T09:43:57;23.53;69.77
71175;DHT22;58876;51.994;4.472;2022-08-19T09:46:26;23.66;69.63
71175;DHT22;58876;51.994;4.472;2022-08-19T09:48:53;23.93;68.79
71175;DHT22;58876;51.994;4.472;2022-08-19T09:51:23;24.04;68.75
71175;DHT22;58876;51.994;4.472;2022-08-19T09:53:50;23.87;67.93
71175;DHT22;58876;51.994;4.472;2022-08-19T09:56:18;23.94;68.37
71175;DHT22;58876;51.994;4.472;2022-08-19T09:58:44;24.25;67.58
71175;DHT22;58876;51.994;4.472;2022-08-19T10:01:16;24.16;67.72
71175;DHT22;58876;51.994;4.472;2022-08-19T10:03:41;24.20;67.16
71175;DHT22;58876;51.994;4.472;2022-08-19T10:06:07;24.67;66.47
71175;DHT22;58876;51.994;4.472;2022-08-19T10:08:36;24.73;64.87
71175;DHT22;58876;51.994;4.472;2022-08-19T10:11:03;25.30;65.04
71175;DHT22;58876;51.994;4.472;2022-08-19T10:13:31;26.08;62.38
71175;DHT22;58876;51.994;4.472;2022-08-19T10:16:07;26.29;61.23
71175;DHT22;58876;51.994;4.472;2022-08-19T10:18:34;26.53;60.56
71175;DHT22;58876;51.994;4.472;2022-08-19T10:21:13;26.15;60.78
71175;DHT22;58876;51.994;4.472;2022-08-19T10:23:44;25.98;60.48
71175;DHT22;58876;51.994;4.472;2022-08-19T10:26:12;25.47;60.94
71175;DHT22;58876;51.994;4.472;2022-08-19T10:28:38;25.16;61.45
71175;DHT22;58876;51.994;4.472;2022-08-19T10:31:11;25.20;62.26
71175;DHT22;58876;51.994;4.472;2022-08-19T10:33:38;24.82;64.09
71175;DHT22;58876;51.994;4.472;2022-08-19T10:36:08;24.92;65.46
71175;DHT22;58876;51.994;4.472;2022-08-19T10:38:35;25.51;63.98
71175;DHT22;58876;51.994;4.472;2022-08-19T10:41:13;25.73;61.47
71175;DHT22;58876;51.994;4.472;2022-08-19T10:43:39;25.88;60.59
71175;DHT22;58876;51.994;4.472;2022-08-19T10:46:07;25.13;62.77
71175;DHT22;58876;51.994;4.472;2022-08-19T10:48:33;24.69;64.90
71175;DHT22;58876;51.994;4.472;2022-08-19T10:50:59;24.79;65.28
71175;DHT22;58876;51.994;4.472;2022-08-19T10:53:43;24.71;65.05
71175;DHT22;58876;51.994;4.472;2022-08-19T10:56:09;24.90;65.25
71175;DHT22;58876;51.994;4.472;2022-08-19T10:58:53;25.36;64.46
71175;DHT22;58876;51.994;4.472;2022-08-19T11:01:18;25.43;63.80
71175;DHT22;58876;51.994;4.472;2022-08-19T11:03:43;25.15;65.32
71175;DHT22;58876;51.994;4.472;2022-08-19T11:06:11;24.86;66.00
71175;DHT22;58876;51.994;4.472;2022-08-19T11:08:38;24.64;66.57
71175;DHT22;58876;51.994;4.472;2022-08-19T11:11:06;24.61;67.97
71175;DHT22;58876;51.994;4.472;2022-08-19T11:13:36;25.02;66.67
71175;DHT22;58876;51.994;4.472;2022-08-19T11:18:28;25.10;65.57
71175;DHT22;58876;51.994;4.472;2022-08-19T11:20:53;24.95;66.26
71175;DHT22;58876;51.994;4.472;2022-08-19T11:23:19;24.99;65.52
71175;DHT22;58876;51.994;4.472;2022-08-19T11:25:45;24.89;65.87
71175;DHT22;58876;51.994;4.472;2022-08-19T11:28:12;24.86;66.01
71175;DHT22;58876;51.994;4.472;2022-08-19T11:30:39;24.93;66.40
71175;DHT22;58876;51.994;4.472;2022-08-19T11:33:05;25.08;66.02
71175;DHT22;58876;51.994;4.472;2022-08-19T11:35:31;25.37;65.12
71175;DHT22;58876;51.994;4.472;2022-08-19T11:37:58;25.81;62.91
71175;DHT22;58876;51.994;4.472;2022-08-19T11:40:26;25.88;62.92
71175;DHT22;58876;51.994;4.472;2022-08-19T11:42:52;25.89;62.53
71175;DHT22;58876;51.994;4.472;2022-08-19T11:45:20;25.60;63.61
71175;DHT22;58876;51.994;4.472;2022-08-19T11:47:46;25.67;62.71
71175;DHT22;58876;51.994;4.472;2022-08-19T11:50:13;25.77;63.04
71175;DHT22;58876;51.994;4.472;2022-08-19T11:52:40;25.85;63.67
71175;DHT22;58876;51.994;4.472;2022-08-19T11:55:06;25.80;63.69
71175;DHT22;58876;51.994;4.472;2022-08-19T11:57:32;26.01;64.24
71175;DHT22;58876;51.994;4.472;2022-08-19T11:59:57;26.24;63.86
71175;DHT22;58876;51.994;4.472;2022-08-19T12:02:23;26.39;63.11
71175;DHT22;58876;51.994;4.472;2022-08-19T12:04:48;26.37;63.52
71175;DHT22;58876;51.994;4.472;2022-08-19T12:07:14;26.40;62.49
71175;DHT22;58876;51.994;4.472;2022-08-19T12:09:40;26.86;62.18
71175;DHT22;58876;51.994;4.472;2022-08-19T12:12:05;27.16;60.78
71175;DHT22;58876;51.994;4.472;2022-08-19T12:14:31;27.28;61.25
71175;DHT22;58876;51.994;4.472;2022-08-19T12:16:57;27.01;60.53
71175;DHT22;58876;51.994;4.472;2022-08-19T12:19:23;26.43;61.78
71175;DHT22;58876;51.994;4.472;2022-08-19T12:21:52;26.56;62.68
71175;DHT22;58876;51.994;4.472;2022-08-19T12:24:20;26.97;62.22
71175;DHT22;58876;51.994;4.472;2022-08-19T12:26:48;27.15;60.78
71175;DHT22;58876;51.994;4.472;2022-08-19T12:29:14;26.87;61.48
71175;DHT22;58876;51.994;4.472;2022-08-19T12:31:40;26.40;62.88
71175;DHT22;58876;51.994;4.472;2022-08-19T12:34:05;26.39;64.61
71175;DHT22;58876;51.994;4.472;2022-08-19T12:36:31;26.61;64.58
71175;DHT22;58876;51.994;4.472;2022-08-19T12:38:58;26.22;63.72
71175;DHT22;58876;51.994;4.472;2022-08-19T12:41:24;26.29;65.15
71175;DHT22;58876;51.994;4.472;2022-08-19T12:43:49;26.70;63.95
71175;DHT22;58876;51.994;4.472;2022-08-19T12:46:16;26.52;62.70
71175;DHT22;58876;51.994;4.472;2022-08-19T12:48:42;26.31;63.09
71175;DHT22;58876;51.994;4.472;2022-08-19T12:51:12;26.14;64.19
71175;DHT22;58876;51.994;4.472;2022-08-19T12:53:39;26.08;64.29
71175;DHT22;58876;51.994;4.472;2022-08-19T12:56:06;26.16;64.83
71175;DHT22;58876;51.994;4.472;2022-08-19T12:58:31;26.49;64.00
71175;DHT22;58876;51.994;4.472;2022-08-19T13:01:05;26.37;62.89
71175;DHT22;58876;51.994;4.472;2022-08-19T13:03:31;26.36;63.48
71175;DHT22;58876;51.994;4.472;2022-08-19T13:05:56;26.37;63.04
71175;DHT22;58876;51.994;4.472;2022-08-19T13:08:22;26.16;62.81
71175;DHT22;58876;51.994;4.472;2022-08-19T13:10:47;25.77;64.24
71175;DHT22;58876;51.994;4.472;2022-08-19T13:13:14;25.82;64.25
71175;DHT22;58876;51.994;4.472;2022-08-19T13:15:41;25.88;64.30
71175;DHT22;58876;51.994;4.472;2022-08-19T13:18:09;25.57;65.14
71175;DHT22;58876;51.994;4.472;2022-08-19T13:20:37;25.85;64.99
71175;DHT22;58876;51.994;4.472;2022-08-19T13:23:03;26.18;63.35
71175;DHT22;58876;51.994;4.472;2022-08-19T13:25:29;26.29;63.00
71175;DHT22;58876;51.994;4.472;2022-08-19T13:27:55;26.32;62.27
71175;DHT22;58876;51.994;4.472;2022-08-19T13:30:20;26.36;61.51
71175;DHT22;58876;51.994;4.472;2022-08-19T13:33:08;26.31;61.60
71175;DHT22;58876;51.994;4.472;2022-08-19T13:35:46;26.15;61.69
71175;DHT22;58876;51.994;4.472;2022-08-19T13:38:12;25.97;62.52
71175;DHT22;58876;51.994;4.472;2022-08-19T13:40:40;25.51;63.13
71175;DHT22;58876;51.994;4.472;2022-08-19T13:43:06;25.30;63.49
71175;DHT22;58876;51.994;4.472;2022-08-19T13:45:33;26.11;63.67
71175;DHT22;58876;51.994;4.472;2022-08-19T13:48:01;26.33;59.88
71175;DHT22;58876;51.994;4.472;2022-08-19T13:50:32;26.42;59.07
71175;DHT22;58876;51.994;4.472;2022-08-19T13:53:00;25.82;61.30
71175;DHT22;58876;51.994;4.472;2022-08-19T13:55:27;25.98;62.86
71175;DHT22;58876;51.994;4.472;2022-08-19T13:57:54;25.71;62.45
71175;DHT22;58876;51.994;4.472;2022-08-19T14:00:22;25.54;62.58
71175;DHT22;58876;51.994;4.472;2022-08-19T14:02:55;25.46;62.46
71175;DHT22;58876;51.994;4.472;2022-08-19T14:05:22;25.16;62.79
71175;DHT22;58876;51.994;4.472;2022-08-19T14:07:48;24.90;63.84
71175;DHT22;58876;51.994;4.472;2022-08-19T14:10:15;24.96;64.19
71175;DHT22;58876;51.994;4.472;2022-08-19T14:12:43;25.23;63.89
71175;DHT22;58876;51.994;4.472;2022-08-19T14:15:10;25.47;63.38
71175;DHT22;58876;51.994;4.472;2022-08-19T14:17:40;25.46;63.04
71175;DHT22;58876;51.994;4.472;2022-08-19T14:20:09;25.54;62.98
71175;DHT22;58876;51.994;4.472;2022-08-19T14:22:40;25.40;63.63
71175;DHT22;58876;51.994;4.472;2022-08-19T14:25:09;25.19;64.05
71175;DHT22;58876;51.994;4.472;2022-08-19T14:27:37;24.57;66.10
71175;DHT22;58876;51.994;4.472;2022-08-19T14:30:05;24.78;66.02
71175;DHT22;58876;51.994;4.472;2022-08-19T14:32:40;24.88;66.06
71175;DHT22;58876;51.994;4.472;2022-08-19T14:35:06;24.83;66.92
71175;DHT22;58876;51.994;4.472;2022-08-19T14:37:34;25.00;67.71
71175;DHT22;58876;51.994;4.472;2022-08-19T14:40:00;25.00;68.08
71175;DHT22;58876;51.994;4.472;2022-08-19T14:42:26;24.83;67.57
71175;DHT22;58876;51.994;4.472;2022-08-19T14:44:51;24.73;68.28
71175;DHT22;58876;51.994;4.472;2022-08-19T14:47:17;24.88;68.12
71175;DHT22;58876;51.994;4.472;2022-08-19T14:49:42;24.79;67.67
71175;DHT22;58876;51.994;4.472;2022-08-19T14:52:09;24.58;68.28
71175;DHT22;58876;51.994;4.472;2022-08-19T14:54:34;24.22;69.80
71175;DHT22;58876;51.994;4.472;2022-08-19T14:56:59;24.00;70.49
71175;DHT22;58876;51.994;4.472;2022-08-19T14:59:25;24.11;70.52
71175;DHT22;58876;51.994;4.472;2022-08-19T15:01:50;23.89;71.53
71175;DHT22;58876;51.994;4.472;2022-08-19T15:04:16;24.09;71.86
71175;DHT22;58876;51.994;4.472;2022-08-19T15:06:41;24.32;69.82
71175;DHT22;58876;51.994;4.472;2022-08-19T15:09:09;24.40;69.39
71175;DHT22;58876;51.994;4.472;2022-08-19T15:11:35;24.34;69.81
71175;DHT22;58876;51.994;4.472;2022-08-19T15:14:02;24.30;70.16
71175;DHT22;58876;51.994;4.472;2022-08-19T15:16:28;24.03;70.88
71175;DHT22;58876;51.994;4.472;2022-08-19T15:18:57;23.63;73.42
71175;DHT22;58876;51.994;4.472;2022-08-19T15:21:26;23.19;76.20
71175;DHT22;58876;51.994;4.472;2022-08-19T15:23:53;23.12;76.87
71175;DHT22;58876;51.994;4.472;2022-08-19T15:26:20;23.05;76.52
71175;DHT22;58876;51.994;4.472;2022-08-19T15:28:46;22.77;77.32
71175;DHT22;58876;51.994;4.472;2022-08-19T15:31:17;22.40;79.26
71175;DHT22;58876;51.994;4.472;2022-08-19T15:33:45;22.52;79.02
71175;DHT22;58876;51.994;4.472;2022-08-19T15:36:11;22.68;79.73
71175;DHT22;58876;51.994;4.472;2022-08-19T15:38:38;22.74;78.87
71175;DHT22;58876;51.994;4.472;2022-08-19T15:41:18;22.95;77.83